createdAt,value
2022-08-07T00:01:12.496Z,101585.13
2022-08-07T00:06:29.476Z,101581.41
2022-08-07T00:11:48.035Z,101577.06
2022-08-07T00:17:03.095Z,101573.34
2022-08-07T00:22:05.885Z,101581.06
2022-08-07T00:27:09.321Z,101584.56
2022-08-07T00:32:14.076Z,101582.97
2022-08-07T00:37:17.858Z,101577.72
2022-08-07T00:42:29.031Z,101583.34
2022-08-07T00:48:08.783Z,101576.41
2022-08-07T00:52:55.103Z,101580.13
2022-08-07T00:57:57.575Z,101573.16
2022-08-07T01:03:00.306Z,101584.88
2022-08-07T01:08:03.787Z,101560.38
2022-08-07T01:13:06.370Z,101581.78
2022-08-07T01:18:09.635Z,101577.31
2022-08-07T01:23:14.750Z,101578.66
2022-08-07T01:28:18.357Z,101575.56
2022-08-07T01:33:24.763Z,101515.19
2022-08-07T01:38:35.685Z,101572.13
2022-08-07T01:43:48.053Z,101576.66
2022-08-07T01:48:51.305Z,101571.06
2022-08-07T01:54:09.151Z,101571.88
2022-08-07T01:59:31.070Z,101582.88
2022-08-07T02:05:04.601Z,101572.34
2022-08-07T02:10:14.381Z,101581.00
2022-08-07T02:15:23.403Z,101576.00
2022-08-07T02:20:31.586Z,101578.59
2022-08-07T02:26:30.697Z,101572.91
2022-08-07T02:31:09.146Z,101575.94
2022-08-07T02:36:28.754Z,101572.59
2022-08-07T02:41:39.995Z,101582.59
2022-08-07T02:46:53.946Z,101579.16
2022-08-07T02:52:00.194Z,101580.13
2022-08-07T02:57:06.673Z,101582.03
2022-08-07T03:02:10.550Z,101588.34
2022-08-07T03:07:15.158Z,101578.88
2022-08-07T03:12:22.676Z,101579.38
2022-08-07T03:17:53.460Z,101584.91
2022-08-07T03:23:00.409Z,101578.03
2022-08-07T03:28:09.609Z,101568.06
2022-08-07T03:33:39.883Z,101568.84
2022-08-07T03:38:45.046Z,101568.81
2022-08-07T03:43:56.743Z,101581.59
2022-08-07T03:49:03.489Z,101590.22
2022-08-07T03:54:35.713Z,101593.88
2022-08-07T03:59:46.536Z,101583.47
2022-08-07T04:05:07.428Z,101576.00
2022-08-07T04:10:15.719Z,101576.53
2022-08-07T04:15:24.053Z,101596.13
2022-08-07T04:20:29.446Z,101592.13
2022-08-07T04:25:35.812Z,101589.50
2022-08-07T04:30:55.402Z,101590.25
2022-08-07T04:36:10.525Z,101602.22
2022-08-07T04:41:19.119Z,101587.00
2022-08-07T04:47:04.400Z,101602.06
2022-08-07T04:52:18.594Z,101612.19
2022-08-07T04:58:33.703Z,101612.22
2022-08-07T05:04:17.211Z,101622.25
2022-08-07T05:09:45.346Z,101614.31
2022-08-07T05:15:03.314Z,101615.97
2022-08-07T05:20:09.811Z,101613.50
2022-08-07T05:25:26.324Z,101616.59
2022-08-07T05:30:40.977Z,101622.94
2022-08-07T05:35:46.582Z,101634.59
2022-08-07T05:40:51.486Z,101617.16
2022-08-07T05:45:57.977Z,101615.78
2022-08-07T05:51:02.356Z,101628.31
2022-08-07T05:56:12.425Z,101628.56
2022-08-07T06:01:21.098Z,101624.97
2022-08-07T06:06:29.756Z,101620.34
2022-08-07T06:11:38.839Z,101624.31
2022-08-07T06:16:50.191Z,101620.88
2022-08-07T06:22:14.499Z,101624.72
2022-08-07T06:27:59.785Z,101607.50
2022-08-07T06:32:49.955Z,101626.28
2022-08-07T06:37:53.047Z,101639.03
2022-08-07T06:42:58.250Z,101627.84
2022-08-07T06:48:13.189Z,101625.34
2022-08-07T06:55:28.773Z,101633.91
2022-08-07T07:00:13.922Z,101631.72
2022-08-07T07:04:28.529Z,101635.00
2022-08-07T07:09:36.219Z,101644.56
2022-08-07T07:14:50.572Z,101643.53
2022-08-07T07:19:59.140Z,101647.59
2022-08-07T07:26:33.045Z,101635.94
2022-08-07T07:30:37.898Z,101641.19
2022-08-07T07:36:04.539Z,101632.13
2022-08-07T07:41:10.379Z,101624.97
2022-08-07T07:46:38.023Z,101619.44
2022-08-07T07:51:58.434Z,101606.13
2022-08-07T07:57:01.570Z,101613.31
2022-08-07T08:02:10.658Z,101612.00
2022-08-07T08:07:14.640Z,101614.53
2022-08-07T08:12:51.256Z,101614.28
2022-08-07T08:17:57.733Z,101604.78
2022-08-07T08:23:20.635Z,101615.03
2022-08-07T08:28:37.768Z,101615.31
2022-08-07T08:33:42.339Z,101606.78
2022-08-07T08:38:52.171Z,101616.41
2022-08-07T08:44:29.143Z,101605.06
2022-08-07T08:50:15.126Z,101609.44
2022-08-07T08:55:53.224Z,101614.03
2022-08-07T09:01:21.734Z,101613.22
2022-08-07T09:06:48.105Z,101606.59
2022-08-07T09:12:30.188Z,101607.03
2022-08-07T09:17:59.716Z,101591.19
2022-08-07T09:24:33.528Z,101596.44
2022-08-07T09:30:02.369Z,101592.38
2022-08-07T09:34:41.959Z,101595.59
2022-08-07T09:40:42.891Z,101580.03
2022-08-07T09:47:27.431Z,101577.00
2022-08-07T09:52:16.614Z,101560.78
2022-08-07T09:57:30.203Z,101560.00
2022-08-07T10:02:35.696Z,101561.81
2022-08-07T10:07:57.122Z,101563.91
2022-08-07T10:13:55.053Z,101548.34
2022-08-07T10:18:59.561Z,101548.19
2022-08-07T10:24:28.083Z,101537.72
2022-08-07T10:30:07.149Z,101535.41
2022-08-07T10:35:56.304Z,101529.16
2022-08-07T10:41:51.365Z,101519.81
2022-08-07T10:47:11.978Z,101513.13
2022-08-07T10:52:31.795Z,101515.22
2022-08-07T10:58:17.781Z,101503.88
2022-08-07T11:03:55.049Z,101503.72
2022-08-07T11:09:11.075Z,101496.09
2022-08-07T11:14:45.906Z,101495.78
2022-08-07T11:20:04.991Z,101492.84
2022-08-07T11:25:16.777Z,101476.75
2022-08-07T11:30:39.031Z,101471.22
2022-08-07T11:35:59.872Z,101486.44
2022-08-07T11:41:18.169Z,101485.38
2022-08-07T11:47:04.458Z,101489.34
2022-08-07T11:52:29.241Z,101470.50
2022-08-07T11:57:59.479Z,101477.28
2022-08-07T12:03:45.199Z,101484.38
2022-08-07T12:08:49.102Z,101469.19
2022-08-07T12:14:04.679Z,101461.94
2022-08-07T12:19:35.538Z,101459.75
2022-08-07T12:26:02.952Z,101458.88
2022-08-07T12:31:53.208Z,101448.28
2022-08-07T12:37:00.981Z,101439.91
2022-08-07T12:42:04.172Z,101442.19
2022-08-07T12:47:37.548Z,101437.06
2022-08-07T12:52:52.359Z,101429.97
2022-08-07T12:58:01.239Z,101438.94
2022-08-07T13:03:52.170Z,101427.66
2022-08-07T13:08:55.923Z,101427.81
2022-08-07T13:13:58.531Z,101425.19
2022-08-07T13:24:55.255Z,101417.38
2022-08-07T13:30:19.104Z,101423.41
2022-08-07T13:36:18.081Z,101417.28
2022-08-07T13:41:42.883Z,101410.88
2022-08-07T13:46:54.928Z,101401.03
2022-08-07T13:52:33.526Z,101402.97
2022-08-07T13:57:32.091Z,101414.00
2022-08-07T14:02:51.088Z,101400.09
2022-08-07T14:08:00.971Z,101396.34
2022-08-07T14:13:04.823Z,101398.69
2022-08-07T14:18:31.248Z,101397.69
2022-08-07T14:24:00.282Z,101393.66
2022-08-07T14:29:06.042Z,101387.22
2022-08-07T14:34:29.181Z,101388.81
2022-08-07T14:40:17.893Z,101374.59
2022-08-07T14:45:20.850Z,101379.94
2022-08-07T14:55:56.367Z,101380.25
2022-08-07T15:01:21.484Z,101376.31
2022-08-07T15:06:26.208Z,101380.22
2022-08-07T15:11:51.089Z,101375.69
2022-08-07T15:17:16.672Z,101367.63
2022-08-07T15:22:31.227Z,101364.25
2022-08-07T15:27:40.609Z,101360.78
2022-08-07T15:33:05.632Z,101355.81
2022-08-07T15:38:33.038Z,101362.19
2022-08-07T15:44:07.126Z,101351.53
2022-08-07T15:49:15.088Z,101358.84
2022-08-07T15:54:18.261Z,101358.16
2022-08-07T15:59:39.634Z,101358.38
2022-08-07T16:04:47.503Z,101353.13
2022-08-07T16:09:52.765Z,101347.94
2022-08-07T16:15:54.474Z,101352.94
2022-08-07T16:21:53.916Z,101347.97
2022-08-07T16:26:30.951Z,101352.13
2022-08-07T16:31:56.961Z,101347.31
2022-08-07T16:38:06.364Z,101342.56
2022-08-07T16:43:02.690Z,101335.75
2022-08-07T16:48:27.687Z,101335.63
2022-08-07T16:54:06.394Z,101331.19
2022-08-07T16:59:20.412Z,101335.47
2022-08-07T17:04:35.363Z,101327.75
2022-08-07T17:10:07.154Z,101323.03
2022-08-07T17:15:20.567Z,101323.16
2022-08-07T17:20:35.700Z,101324.84
2022-08-07T17:26:49.768Z,101330.22
2022-08-07T17:32:30.118Z,101332.06
2022-08-07T17:38:05.974Z,101336.94
2022-08-07T17:43:17.825Z,101331.53
2022-08-07T17:48:30.626Z,101349.13
2022-08-07T17:54:00.574Z,101340.59
2022-08-07T17:59:10.318Z,101330.97
2022-08-07T18:04:34.510Z,101347.09
2022-08-07T18:10:04.914Z,101343.38
2022-08-07T18:15:13.045Z,101353.28
2022-08-07T18:21:09.613Z,101363.53
2022-08-07T18:25:50.259Z,101357.19
2022-08-07T18:31:07.387Z,101370.97
2022-08-07T18:36:16.088Z,101371.56
2022-08-07T18:41:45.821Z,101386.22
2022-08-07T18:47:00.216Z,101390.09
2022-08-07T18:52:53.370Z,101397.91
2022-08-07T18:58:05.704Z,101409.28
2022-08-07T19:03:17.091Z,101408.34
2022-08-07T19:08:26.744Z,101411.06
2022-08-07T19:13:41.173Z,101411.88
2022-08-07T19:18:52.819Z,101428.03
2022-08-07T19:24:01.337Z,101402.91
2022-08-07T19:31:04.383Z,101418.59
2022-08-07T19:34:34.095Z,101410.22
2022-08-07T19:39:56.037Z,101434.22
2022-08-07T19:45:09.551Z,101430.97
2022-08-07T19:50:41.299Z,101438.44
2022-08-07T19:55:56.365Z,101436.81
2022-08-07T20:00:58.741Z,101452.47
2022-08-07T20:06:05.481Z,101458.69
2022-08-07T20:11:12.257Z,101456.59
2022-08-07T20:16:34.788Z,101459.84
2022-08-07T20:21:47.436Z,101471.63
2022-08-07T20:26:54.861Z,101468.81
2022-08-07T20:32:00.060Z,101476.94
2022-08-07T20:37:06.364Z,101464.91
2022-08-07T20:42:12.586Z,101470.03
2022-08-07T20:47:19.313Z,101475.44
2022-08-07T20:52:30.204Z,101475.25
2022-08-07T20:58:02.510Z,101485.91
2022-08-07T21:03:07.758Z,101490.09
2022-08-07T21:08:20.690Z,101483.31
2022-08-07T21:13:57.967Z,101478.69
2022-08-07T21:19:04.552Z,101500.06
2022-08-07T21:24:18.500Z,101500.94
2022-08-07T21:29:30.729Z,101498.81
2022-08-07T21:34:58.703Z,101502.00
2022-08-07T21:40:10.225Z,101492.50
2022-08-07T21:46:03.266Z,101495.53
2022-08-07T21:50:55.224Z,101500.00
2022-08-07T21:56:16.784Z,101503.91
2022-08-07T22:02:10.724Z,101504.22
2022-08-07T22:07:22.860Z,101497.94
2022-08-07T22:12:44.489Z,101488.50
2022-08-07T22:17:53.884Z,101489.88
2022-08-07T22:23:09.428Z,101484.16
2022-08-07T22:28:32.137Z,101490.75
2022-08-07T22:33:56.408Z,101487.19
2022-08-07T22:39:13.870Z,101488.56
2022-08-07T22:44:20.865Z,101479.53
2022-08-07T22:49:37.897Z,101476.78
2022-08-07T22:54:58.754Z,101477.88
2022-08-07T23:00:28.532Z,101480.66
2022-08-07T23:06:08.350Z,101485.63
2022-08-07T23:11:24.549Z,101488.63
2022-08-07T23:16:46.344Z,101486.19
2022-08-07T23:22:10.996Z,101491.16
2022-08-07T23:28:21.442Z,101488.69
2022-08-07T23:34:35.850Z,101490.34
2022-08-07T23:38:36.518Z,101493.97
2022-08-07T23:44:15.681Z,101490.19
2022-08-07T23:49:50.838Z,101494.00
2022-08-07T23:55:02.082Z,101493.34
